Monroe, North Carolina
Current Conditions -  °F | °C
As of 7:53 AM on Sunday 23 Nov 2014 (Local Time) from KEQY Reporting Station
Light Rain Light Rain  
Wind Chill: 39°   Ceiling: 11000
Heat Index: 42°   Visibility: 4mi
Dew Point: 39°   Wind: 5mph
Humidity: 89%   Direction: 70°ENE
Pressure: 30.2"   Gusts: NA
Location:  34.98°N, 80.55°W
Report Text: KEQY 231253Z AUTO 07004KT 4SM -RA BR OVC110 06/04 A3020 RMK AO2 SLP244 P0007 T00560039
Loading
Personal Weather Stations






























Interactive Weather Map New forecast layout! Learn more

10-Day Weather Forecast

Advertisements
Track Severe Weather on mobile